createdAt,value
2023-03-27T00:01:51.294Z,1.50
2023-03-27T00:04:20.566Z,1.50
2023-03-27T00:06:49.021Z,0.98
2023-03-27T00:09:19.159Z,1.25
2023-03-27T00:11:49.453Z,1.02
2023-03-27T00:14:17.271Z,1.63
2023-03-27T00:16:46.419Z,0.98
2023-03-27T00:19:14.643Z,1.15
2023-03-27T00:21:42.421Z,0.82
2023-03-27T00:24:10.145Z,1.13
2023-03-27T00:26:40.997Z,1.30
2023-03-27T00:29:08.811Z,1.13
2023-03-27T00:31:36.533Z,1.15
2023-03-27T00:34:05.310Z,0.90
2023-03-27T00:36:33.195Z,1.35
2023-03-27T00:39:01.562Z,1.00
2023-03-27T00:41:29.278Z,1.10
2023-03-27T00:43:58.960Z,1.00
2023-03-27T00:46:32.051Z,0.93
2023-03-27T00:49:02.531Z,1.00
2023-03-27T00:51:31.216Z,1.58
2023-03-27T00:54:00.263Z,1.20
2023-03-27T00:56:28.064Z,1.42
2023-03-27T00:59:00.020Z,1.38
2023-03-27T01:01:30.498Z,1.52
2023-03-27T01:04:00.974Z,1.45
2023-03-27T01:06:30.130Z,1.17
2023-03-27T01:08:59.311Z,1.13
2023-03-27T01:11:35.159Z,1.02
2023-03-27T01:14:09.877Z,1.20
2023-03-27T01:16:43.154Z,0.95
2023-03-27T01:19:21.846Z,1.23
2023-03-27T01:22:09.561Z,1.17
2023-03-27T01:24:59.076Z,1.17
2023-03-27T01:27:37.871Z,1.15
2023-03-27T01:30:09.471Z,1.08
2023-03-27T01:32:50.066Z,1.13
2023-03-27T01:35:28.951Z,0.70
2023-03-27T01:38:12.065Z,1.05
2023-03-27T01:40:43.626Z,0.80
2023-03-27T01:43:13.193Z,1.67
2023-03-27T01:45:43.960Z,1.23
2023-03-27T01:48:14.704Z,1.38
2023-03-27T01:50:46.295Z,0.77
2023-03-27T01:53:15.949Z,1.00
2023-03-27T01:58:17.083Z,0.85
2023-03-27T02:00:52.020Z,1.20
2023-03-27T02:03:25.108Z,1.27
2023-03-27T02:05:56.385Z,1.20
2023-03-27T02:08:32.239Z,1.00
2023-03-27T02:11:09.906Z,0.88
2023-03-27T02:13:41.973Z,1.27
2023-03-27T02:16:12.481Z,1.38
2023-03-27T02:18:48.005Z,0.95
2023-03-27T02:21:16.822Z,0.90
2023-03-27T02:23:45.254Z,1.48
2023-03-27T02:26:14.795Z,1.60
2023-03-27T02:28:50.006Z,2.40
2023-03-27T02:31:32.849Z,1.10
2023-03-27T02:34:13.149Z,1.75
2023-03-27T02:36:46.802Z,1.13
2023-03-27T02:39:17.009Z,1.20
2023-03-27T02:41:49.482Z,1.15
2023-03-27T02:44:46.791Z,0.95
2023-03-27T02:47:20.566Z,1.00
2023-03-27T02:49:52.445Z,1.20
2023-03-27T02:52:24.621Z,1.00
2023-03-27T02:54:54.863Z,1.13
2023-03-27T02:57:26.995Z,1.10
2023-03-27T03:00:20.268Z,1.27
2023-03-27T03:03:00.201Z,1.30
2023-03-27T03:05:28.214Z,1.60
2023-03-27T03:07:58.160Z,0.77
2023-03-27T03:10:28.055Z,1.38
2023-03-27T03:12:55.817Z,1.40
2023-03-27T03:15:25.529Z,2.05
2023-03-27T03:17:54.284Z,1.23
2023-03-27T03:20:23.968Z,1.30
2023-03-27T03:25:20.277Z,1.33
2023-03-27T03:27:48.650Z,1.40
2023-03-27T03:30:18.379Z,1.38
2023-03-27T03:33:00.458Z,1.20
2023-03-27T03:35:29.523Z,1.13
2023-03-27T03:37:59.407Z,0.90
2023-03-27T03:40:30.169Z,1.33
2023-03-27T03:42:59.196Z,2.17
2023-03-27T03:45:30.392Z,1.55
2023-03-27T03:48:00.335Z,1.40
2023-03-27T03:50:28.567Z,1.42
2023-03-27T03:52:56.703Z,0.95
2023-03-27T03:55:25.689Z,1.35
2023-03-27T03:57:53.598Z,0.83
2023-03-27T04:00:27.239Z,1.00
2023-03-27T04:02:57.598Z,0.98
2023-03-27T04:05:27.698Z,1.30
2023-03-27T04:08:00.428Z,1.20
2023-03-27T04:10:54.960Z,1.02
2023-03-27T04:13:39.580Z,1.27
2023-03-27T04:16:21.691Z,1.38
2023-03-27T04:18:54.656Z,1.10
2023-03-27T04:21:29.506Z,1.50
2023-03-27T04:24:02.362Z,1.30
2023-03-27T04:26:45.056Z,1.90
2023-03-27T04:29:22.341Z,1.00
2023-03-27T04:32:00.870Z,0.75
2023-03-27T04:34:40.914Z,1.00
2023-03-27T04:37:29.481Z,1.33
2023-03-27T04:40:18.821Z,1.40
2023-03-27T04:42:47.305Z,1.73
2023-03-27T04:45:17.258Z,1.67
2023-03-27T04:47:49.437Z,1.17
2023-03-27T04:50:19.195Z,1.15
2023-03-27T04:52:50.727Z,1.23
2023-03-27T04:55:20.471Z,1.10
2023-03-27T04:57:51.393Z,1.20
2023-03-27T05:00:20.032Z,1.33
2023-03-27T05:02:48.569Z,1.45
2023-03-27T05:05:35.236Z,1.40
2023-03-27T05:08:07.580Z,1.02
2023-03-27T05:10:36.642Z,1.40
2023-03-27T05:13:05.214Z,1.42
2023-03-27T05:15:34.014Z,0.77
2023-03-27T05:18:05.011Z,1.42
2023-03-27T05:20:33.004Z,0.98
2023-03-27T05:23:11.445Z,1.65
2023-03-27T05:25:42.663Z,1.90
2023-03-27T05:28:15.822Z,1.25
2023-03-27T05:30:48.677Z,1.38
2023-03-27T05:33:21.088Z,1.33
2023-03-27T05:35:50.321Z,1.15
2023-03-27T05:38:20.042Z,1.63
2023-03-27T05:41:10.224Z,1.20
2023-03-27T05:43:42.688Z,2.95
2023-03-27T05:46:11.470Z,1.52
2023-03-27T05:48:39.705Z,1.40
2023-03-27T05:51:09.410Z,1.98
2023-03-27T05:53:40.734Z,1.20
2023-03-27T05:56:19.709Z,1.63
2023-03-27T05:59:00.124Z,1.40
2023-03-27T06:01:29.543Z,1.65
2023-03-27T06:04:00.588Z,1.63
2023-03-27T06:07:03.180Z,1.30
2023-03-27T06:09:35.922Z,1.10
2023-03-27T06:12:22.305Z,1.80
2023-03-27T06:14:54.327Z,1.38
2023-03-27T06:17:32.356Z,1.65
2023-03-27T06:20:12.984Z,2.10
2023-03-27T06:25:11.992Z,1.15
2023-03-27T06:27:42.113Z,1.60
2023-03-27T06:30:11.128Z,1.33
2023-03-27T06:32:44.875Z,1.38
2023-03-27T06:35:14.983Z,1.35
2023-03-27T06:37:54.032Z,1.20
2023-03-27T06:40:27.976Z,1.30
2023-03-27T06:43:01.135Z,1.55
2023-03-27T06:45:36.043Z,1.85
2023-03-27T06:48:21.247Z,1.60
2023-03-27T06:50:53.037Z,1.15
2023-03-27T06:55:55.752Z,1.98
2023-03-27T06:58:25.356Z,1.25
2023-03-27T07:00:53.277Z,1.60
2023-03-27T07:03:22.745Z,1.05
2023-03-27T07:06:34.320Z,1.98
2023-03-27T07:09:08.359Z,1.63
2023-03-27T07:11:38.698Z,1.50
2023-03-27T07:14:09.697Z,1.45
2023-03-27T07:16:38.733Z,1.35
2023-03-27T07:19:06.575Z,1.52
2023-03-27T07:21:40.189Z,1.70
2023-03-27T07:24:11.811Z,1.58
2023-03-27T07:26:41.861Z,1.63
2023-03-27T07:29:22.340Z,1.27
2023-03-27T07:31:58.804Z,1.92
2023-03-27T07:34:38.907Z,1.52
2023-03-27T07:37:14.915Z,0.98
2023-03-27T07:40:04.033Z,1.30
2023-03-27T07:42:34.063Z,1.33
2023-03-27T07:45:05.376Z,1.45
2023-03-27T07:47:34.212Z,1.73
2023-03-27T07:50:03.022Z,1.58
2023-03-27T07:52:31.285Z,1.17
2023-03-27T07:55:03.729Z,1.60
2023-03-27T07:57:58.030Z,1.88
2023-03-27T08:00:30.746Z,1.50
2023-03-27T08:03:10.642Z,1.35
2023-03-27T08:05:44.747Z,1.63
2023-03-27T08:08:16.145Z,2.67
2023-03-27T08:10:57.098Z,1.80
2023-03-27T08:13:29.117Z,1.88
2023-03-27T08:16:06.897Z,1.40
2023-03-27T08:18:35.044Z,1.27
2023-03-27T08:21:03.771Z,1.35
2023-03-27T08:23:34.305Z,1.33
2023-03-27T08:26:20.947Z,1.40
2023-03-27T08:28:58.459Z,1.33
2023-03-27T08:31:30.889Z,1.50
2023-03-27T08:34:05.164Z,1.48
2023-03-27T08:36:47.512Z,1.33
2023-03-27T08:39:16.960Z,1.70
2023-03-27T08:41:59.342Z,1.65
2023-03-27T08:44:35.561Z,1.05
2023-03-27T08:47:16.492Z,0.90
2023-03-27T08:50:03.942Z,1.13
2023-03-27T08:52:37.393Z,1.35
2023-03-27T08:55:13.907Z,1.50
2023-03-27T08:57:51.734Z,1.15
2023-03-27T09:00:26.740Z,0.90
2023-03-27T09:03:11.138Z,1.30
2023-03-27T09:05:42.535Z,1.70
2023-03-27T09:08:15.166Z,1.33
2023-03-27T09:10:46.821Z,1.30
2023-03-27T09:13:36.164Z,1.40
2023-03-27T09:16:12.469Z,0.88
2023-03-27T09:18:43.295Z,0.90
2023-03-27T09:21:20.261Z,1.13
2023-03-27T09:23:49.090Z,1.02
2023-03-27T09:26:42.793Z,0.80
2023-03-27T09:29:35.249Z,0.80
2023-03-27T09:32:24.283Z,0.60
2023-03-27T09:34:52.775Z,0.70
2023-03-27T09:37:22.097Z,0.82
2023-03-27T09:39:53.786Z,0.70
2023-03-27T09:42:28.042Z,0.68
2023-03-27T09:44:57.935Z,0.50
2023-03-27T09:47:33.299Z,0.50
2023-03-27T09:50:14.756Z,0.70
2023-03-27T09:53:07.221Z,0.57
2023-03-27T09:55:53.817Z,0.57
2023-03-27T09:58:26.337Z,0.60
2023-03-27T10:01:08.287Z,0.40
2023-03-27T10:03:41.537Z,0.40
2023-03-27T10:06:14.544Z,0.70
2023-03-27T10:08:57.047Z,0.60
2023-03-27T10:11:32.773Z,0.70
2023-03-27T10:14:13.283Z,0.50
2023-03-27T10:16:42.755Z,0.60
2023-03-27T10:19:21.152Z,0.45
2023-03-27T10:21:50.914Z,0.77
2023-03-27T10:24:28.759Z,0.60
2023-03-27T10:27:07.988Z,0.70
2023-03-27T10:29:41.090Z,0.80
2023-03-27T10:32:15.771Z,0.85
2023-03-27T10:35:03.261Z,0.45
2023-03-27T10:37:50.157Z,0.35
2023-03-27T10:40:50.464Z,0.80
2023-03-27T10:43:32.198Z,0.60
2023-03-27T10:46:01.054Z,0.50
2023-03-27T10:48:34.332Z,0.60
2023-03-27T10:51:06.248Z,0.70
2023-03-27T10:53:58.039Z,0.50
2023-03-27T10:56:42.698Z,0.90
2023-03-27T10:59:16.771Z,0.65
2023-03-27T11:01:48.041Z,0.60
2023-03-27T11:04:21.141Z,0.73
2023-03-27T11:06:57.213Z,0.80
2023-03-27T11:09:28.508Z,0.90
2023-03-27T11:12:08.374Z,0.60
2023-03-27T11:14:47.903Z,0.60
2023-03-27T11:17:22.440Z,0.88
2023-03-27T11:20:22.520Z,0.70
2023-03-27T11:23:13.968Z,0.60
2023-03-27T11:26:02.895Z,0.60
2023-03-27T11:31:12.170Z,0.80
2023-03-27T11:33:47.890Z,0.80
2023-03-27T11:36:22.840Z,0.60
2023-03-27T11:39:06.987Z,0.55
2023-03-27T11:41:35.541Z,0.95
2023-03-27T11:44:04.054Z,0.90
2023-03-27T11:47:06.919Z,0.80
2023-03-27T11:49:44.948Z,1.17
2023-03-27T11:52:17.091Z,1.10
2023-03-27T11:54:52.688Z,0.55
2023-03-27T11:57:26.770Z,0.70
2023-03-27T12:00:06.152Z,1.00
2023-03-27T12:02:57.894Z,0.70
2023-03-27T12:05:35.487Z,0.60
2023-03-27T12:08:10.402Z,0.77
2023-03-27T12:10:44.449Z,0.85
2023-03-27T12:13:38.587Z,0.60
2023-03-27T12:16:30.662Z,0.85
2023-03-27T12:19:21.143Z,0.75
2023-03-27T12:22:27.033Z,0.60
2023-03-27T12:25:05.145Z,0.55
2023-03-27T12:28:06.470Z,0.57
2023-03-27T12:30:49.842Z,0.47
2023-03-27T12:33:28.350Z,0.50
2023-03-27T12:35:58.931Z,0.50
2023-03-27T12:38:29.216Z,0.47
2023-03-27T12:41:03.469Z,0.43
2023-03-27T12:43:47.461Z,0.30
2023-03-27T12:46:33.744Z,0.40
2023-03-27T12:49:05.159Z,0.43
2023-03-27T12:51:41.727Z,0.30
2023-03-27T12:54:23.512Z,0.20
2023-03-27T12:56:53.578Z,0.70
2023-03-27T12:59:27.760Z,0.52
2023-03-27T13:02:14.911Z,0.55
2023-03-27T13:04:54.214Z,0.73
2023-03-27T13:07:26.132Z,0.55
2023-03-27T13:10:14.866Z,0.40
2023-03-27T13:12:54.364Z,0.40
2023-03-27T13:15:33.884Z,0.50
2023-03-27T13:18:16.552Z,0.70
2023-03-27T13:20:48.223Z,0.43
2023-03-27T13:23:26.686Z,0.70
2023-03-27T13:26:01.614Z,0.65
2023-03-27T13:28:36.211Z,0.75
2023-03-27T13:31:34.152Z,1.45
2023-03-27T13:34:33.348Z,0.55
2023-03-27T13:37:25.937Z,0.30
2023-03-27T13:40:20.862Z,0.20
2023-03-27T13:42:52.411Z,0.38
2023-03-27T13:45:23.250Z,0.52
2023-03-27T13:48:45.232Z,0.40
2023-03-27T13:53:51.056Z,1.35
2023-03-27T13:56:49.728Z,0.30
2023-03-27T13:59:58.715Z,0.50
2023-03-27T14:02:57.721Z,0.38
2023-03-27T14:05:45.467Z,0.20
2023-03-27T14:08:21.148Z,0.40
2023-03-27T14:11:28.791Z,0.30
2023-03-27T14:14:19.567Z,0.50
2023-03-27T14:16:56.967Z,0.30
2023-03-27T14:19:32.654Z,0.38
2023-03-27T14:22:03.603Z,0.60
2023-03-27T14:24:41.037Z,0.80
2023-03-27T14:27:21.495Z,0.50
2023-03-27T14:30:05.247Z,0.70
2023-03-27T14:32:33.543Z,0.60
2023-03-27T14:35:05.130Z,1.00
2023-03-27T14:37:46.965Z,0.98
2023-03-27T14:40:23.104Z,0.70
2023-03-27T14:42:58.548Z,0.90
2023-03-27T14:45:29.876Z,0.90
2023-03-27T14:48:01.594Z,0.77
2023-03-27T14:50:38.260Z,0.80
2023-03-27T14:53:10.871Z,1.27
2023-03-27T14:55:57.439Z,0.77
2023-03-27T14:58:55.042Z,0.93
2023-03-27T15:01:23.786Z,0.70
2023-03-27T15:03:55.939Z,0.80
2023-03-27T15:06:26.402Z,0.80
2023-03-27T15:09:05.693Z,0.90
2023-03-27T15:11:55.081Z,0.95
2023-03-27T15:14:29.348Z,0.98
2023-03-27T15:16:59.531Z,0.85
2023-03-27T15:19:29.094Z,0.90
2023-03-27T15:22:01.345Z,0.90
2023-03-27T15:24:32.972Z,1.00
2023-03-27T15:27:02.677Z,1.08
2023-03-27T15:29:39.302Z,1.10
2023-03-27T15:32:11.673Z,1.00
2023-03-27T15:34:47.403Z,1.08
2023-03-27T15:37:27.265Z,1.10
2023-03-27T15:40:46.802Z,0.85
2023-03-27T15:43:26.039Z,1.27
2023-03-27T15:46:01.576Z,0.75
2023-03-27T15:48:36.131Z,0.85
2023-03-27T15:51:08.073Z,0.70
2023-03-27T15:53:45.523Z,0.70
2023-03-27T15:56:38.764Z,1.00
2023-03-27T15:59:08.904Z,0.70
2023-03-27T16:01:38.900Z,0.73
2023-03-27T16:04:09.448Z,0.47
2023-03-27T16:06:38.590Z,0.77
2023-03-27T16:09:10.626Z,0.70
2023-03-27T16:11:43.011Z,0.60
2023-03-27T16:14:22.607Z,0.50
2023-03-27T16:16:54.867Z,0.70
2023-03-27T16:19:23.117Z,0.43
2023-03-27T16:21:57.799Z,0.70
2023-03-27T16:24:25.592Z,0.95
2023-03-27T16:26:54.980Z,0.70
2023-03-27T16:31:52.833Z,0.88
2023-03-27T16:34:23.265Z,0.60
2023-03-27T16:36:51.969Z,0.47
2023-03-27T16:39:19.845Z,0.50
2023-03-27T16:41:47.543Z,0.73
2023-03-27T16:44:16.267Z,0.77
2023-03-27T16:46:44.159Z,0.32
2023-03-27T16:49:14.094Z,0.60
2023-03-27T16:51:41.861Z,0.45
2023-03-27T16:54:10.111Z,0.40
2023-03-27T16:56:38.034Z,0.60
2023-03-27T16:59:06.258Z,0.60
2023-03-27T17:01:34.206Z,0.47
2023-03-27T17:04:02.425Z,1.15
2023-03-27T17:06:31.563Z,1.00
2023-03-27T17:08:59.906Z,1.02
2023-03-27T17:11:27.631Z,0.50
2023-03-27T17:14:16.288Z,0.50
2023-03-27T17:16:44.576Z,0.65
2023-03-27T17:19:12.336Z,0.77
2023-03-27T17:21:42.335Z,0.45
2023-03-27T17:24:10.257Z,0.38
2023-03-27T17:26:38.896Z,0.55
2023-03-27T17:29:08.969Z,0.60
2023-03-27T17:31:36.929Z,0.50
2023-03-27T17:34:04.722Z,0.80
2023-03-27T17:36:42.848Z,0.45
2023-03-27T17:39:17.048Z,0.30
2023-03-27T17:41:45.628Z,0.47
2023-03-27T17:44:13.693Z,0.50
2023-03-27T17:46:41.744Z,0.47
2023-03-27T17:49:09.918Z,0.35
2023-03-27T17:51:37.785Z,0.50
2023-03-27T17:54:05.849Z,0.80
2023-03-27T17:56:36.176Z,0.65
2023-03-27T18:01:32.892Z,1.05
2023-03-27T18:04:01.510Z,0.70
2023-03-27T18:06:29.368Z,0.77
2023-03-27T18:08:57.211Z,0.73
2023-03-27T18:11:25.588Z,1.42
2023-03-27T18:13:54.738Z,0.90
2023-03-27T18:16:23.060Z,0.85
2023-03-27T18:18:55.303Z,0.55
2023-03-27T18:21:23.076Z,1.02
2023-03-27T18:23:53.399Z,0.68
2023-03-27T18:26:22.149Z,0.90
2023-03-27T18:28:49.853Z,1.17
2023-03-27T18:31:19.748Z,0.68
2023-03-27T18:33:47.650Z,0.80
2023-03-27T18:36:15.684Z,0.60
2023-03-27T18:38:44.137Z,0.80
2023-03-27T18:41:12.753Z,1.02
2023-03-27T18:43:40.861Z,1.75
2023-03-27T18:46:08.790Z,0.75
2023-03-27T18:48:37.915Z,1.40
2023-03-27T18:51:06.984Z,0.95
2023-03-27T18:53:34.989Z,0.50
2023-03-27T18:56:03.615Z,0.68
2023-03-27T18:58:31.489Z,1.10
2023-03-27T19:00:59.948Z,1.20
2023-03-27T19:03:30.836Z,1.20
2023-03-27T19:06:03.094Z,1.25
2023-03-27T19:08:32.905Z,1.30
2023-03-27T19:11:05.153Z,1.20
2023-03-27T19:13:53.213Z,1.02
2023-03-27T19:16:44.291Z,1.10
2023-03-27T19:19:46.733Z,1.02
2023-03-27T19:22:37.169Z,1.35
2023-03-27T19:25:21.720Z,0.95
2023-03-27T19:27:49.631Z,0.98
2023-03-27T19:30:18.420Z,1.05
2023-03-27T19:32:48.120Z,1.10
2023-03-27T19:35:16.027Z,1.20
2023-03-27T19:37:45.640Z,1.30
2023-03-27T19:40:15.763Z,1.10
2023-03-27T19:42:43.522Z,1.25
2023-03-27T19:45:11.620Z,1.40
2023-03-27T19:47:39.445Z,1.70
2023-03-27T19:50:09.419Z,1.30
2023-03-27T19:53:08.264Z,1.00
2023-03-27T19:55:37.356Z,1.42
2023-03-27T19:58:05.297Z,1.00
2023-03-27T20:00:38.278Z,1.00
2023-03-27T20:03:10.449Z,1.17
2023-03-27T20:05:39.138Z,0.80
2023-03-27T20:08:08.240Z,1.20
2023-03-27T20:10:36.587Z,0.90
2023-03-27T20:13:04.381Z,1.10
2023-03-27T20:18:03.030Z,1.27
2023-03-27T20:20:31.607Z,1.03
2023-03-27T20:23:03.173Z,1.10
2023-03-27T20:25:33.828Z,1.65
2023-03-27T20:28:03.349Z,1.00
2023-03-27T20:30:50.149Z,1.02
2023-03-27T20:33:43.925Z,1.27
2023-03-27T20:36:11.722Z,0.88
2023-03-27T20:38:39.499Z,0.85
2023-03-27T20:41:11.352Z,1.10
2023-03-27T20:43:41.294Z,1.05
2023-03-27T20:46:11.117Z,1.42
2023-03-27T20:48:41.991Z,0.77
2023-03-27T20:51:14.938Z,1.15
2023-03-27T20:53:44.092Z,1.05
2023-03-27T20:56:14.514Z,1.10
2023-03-27T20:58:44.793Z,0.88
2023-03-27T21:01:12.593Z,1.10
2023-03-27T21:03:46.366Z,1.20
2023-03-27T21:06:15.584Z,1.10
2023-03-27T21:08:45.591Z,1.17
2023-03-27T21:11:15.740Z,0.63
2023-03-27T21:13:43.475Z,1.00
2023-03-27T21:16:11.685Z,1.13
2023-03-27T21:18:40.974Z,1.35
2023-03-27T21:21:09.665Z,1.40
2023-03-27T21:23:39.316Z,0.88
2023-03-27T21:26:07.881Z,0.93
2023-03-27T21:28:36.986Z,0.80
2023-03-27T21:31:07.436Z,0.70
2023-03-27T21:36:03.196Z,0.88
2023-03-27T21:38:32.157Z,1.65
2023-03-27T21:41:01.875Z,1.48
2023-03-27T21:43:30.222Z,1.25
2023-03-27T21:46:01.820Z,0.80
2023-03-27T21:48:29.935Z,1.13
2023-03-27T21:51:01.366Z,0.88
2023-03-27T21:53:29.234Z,0.90
2023-03-27T21:55:57.603Z,1.75
2023-03-27T21:58:25.654Z,1.50
2023-03-27T22:00:54.230Z,1.40
2023-03-27T22:03:23.492Z,1.20
2023-03-27T22:05:57.750Z,0.87
2023-03-27T22:08:37.812Z,0.77
2023-03-27T22:11:05.747Z,0.60
2023-03-27T22:13:35.898Z,0.98
2023-03-27T22:16:08.408Z,0.93
2023-03-27T22:18:39.573Z,1.10
2023-03-27T22:21:15.025Z,1.10
2023-03-27T22:23:42.815Z,1.20
2023-03-27T22:26:10.615Z,0.80
2023-03-27T22:28:39.314Z,1.17
2023-03-27T22:31:07.521Z,0.55
2023-03-27T22:33:36.216Z,0.77
2023-03-27T22:36:06.423Z,1.08
2023-03-27T22:38:34.461Z,1.25
2023-03-27T22:41:02.193Z,1.33
2023-03-27T22:43:31.021Z,1.08
2023-03-27T22:46:04.750Z,0.88
2023-03-27T22:48:33.693Z,0.68
2023-03-27T22:51:01.594Z,0.70
2023-03-27T22:53:32.527Z,1.02
2023-03-27T22:56:01.860Z,1.30
2023-03-27T22:58:30.542Z,1.08
2023-03-27T23:00:58.557Z,0.57
2023-03-27T23:03:27.454Z,0.80
2023-03-27T23:05:56.398Z,0.80
2023-03-27T23:08:27.507Z,1.25
2023-03-27T23:10:57.850Z,0.63
2023-03-27T23:13:26.048Z,0.90
2023-03-27T23:15:53.859Z,1.30
2023-03-27T23:18:25.101Z,1.05
2023-03-27T23:20:56.490Z,1.00
2023-03-27T23:23:25.627Z,1.13
2023-03-27T23:25:53.730Z,0.85
2023-03-27T23:28:23.400Z,1.00
2023-03-27T23:30:54.806Z,1.17
2023-03-27T23:33:24.986Z,0.70
2023-03-27T23:35:54.027Z,1.10
2023-03-27T23:38:22.393Z,1.10
2023-03-27T23:40:55.127Z,1.20
2023-03-27T23:43:25.573Z,1.10
2023-03-27T23:45:53.619Z,0.93
2023-03-27T23:48:21.376Z,1.42
2023-03-27T23:50:50.403Z,0.60
2023-03-27T23:53:18.115Z,1.65
2023-03-27T23:55:46.354Z,0.95
2023-03-27T23:58:14.524Z,1.00
